Terminal Aerodrome Forecast
Issued by NWS Tuscon, AZ

Home | Current Version | Previous Version | Text Only | Print | Product List | Glossary On
Versions: 1 2 3 4 5 6 7 8 9 10 11 12 13
000
FTUS45 KTWC 260539
TAFTUS
TAF
KTUS 260539Z 2606/2706 15006KT P6SM SCT100 SCT200
     FM261600 VRB04KT P6SM SCT080 SCT200
     FM262200 27007KT P6SM VCSH SCT090 SCT200=

USA.gov is the U.S. government's official web portal to all federal, state and local government web resources and services.